createdAt,value
2022-10-18T00:02:20.756Z,38.97
2022-10-18T00:05:23.029Z,45.28
2022-10-18T00:08:25.445Z,39.70
2022-10-18T00:11:27.703Z,34.40
2022-10-18T00:14:30.173Z,34.13
2022-10-18T00:17:34.892Z,34.00
2022-10-18T00:20:37.198Z,28.35
2022-10-18T00:23:41.981Z,28.77
2022-10-18T00:26:44.665Z,28.60
2022-10-18T00:29:46.966Z,28.55
2022-10-18T00:32:49.236Z,28.80
2022-10-18T00:35:51.482Z,27.60
2022-10-18T00:38:54.018Z,19.85
2022-10-18T00:41:56.438Z,23.80
2022-10-18T00:45:18.874Z,25.75
2022-10-18T00:48:21.510Z,21.37
2022-10-18T00:51:27.829Z,24.35
2022-10-18T00:54:31.788Z,24.95
2022-10-18T00:57:34.719Z,24.83
2022-10-18T01:00:39.523Z,24.42
2022-10-18T01:03:42.045Z,21.17
2022-10-18T01:10:09.128Z,24.55
2022-10-18T01:13:49.778Z,24.13
2022-10-18T01:17:13.825Z,24.90
2022-10-18T01:20:31.334Z,27.70
2022-10-18T01:23:37.162Z,30.08
2022-10-18T01:26:48.477Z,26.27
2022-10-18T01:29:59.335Z,24.85
2022-10-18T01:33:15.639Z,30.15
2022-10-18T01:36:20.595Z,30.77
2022-10-18T01:39:26.955Z,29.95
2022-10-18T01:42:29.816Z,28.63
2022-10-18T01:45:33.005Z,30.25
2022-10-18T01:48:38.082Z,27.10
2022-10-18T01:51:40.422Z,28.23
2022-10-18T01:54:46.157Z,25.05
2022-10-18T01:58:06.265Z,30.00
2022-10-18T02:01:20.266Z,25.83
2022-10-18T02:04:31.611Z,24.77
2022-10-18T02:07:39.666Z,26.03
2022-10-18T02:10:45.681Z,33.00
2022-10-18T02:13:55.106Z,27.25
2022-10-18T02:16:58.826Z,29.38
2022-10-18T02:20:02.788Z,29.33
2022-10-18T02:23:07.806Z,27.87
2022-10-18T02:26:10.133Z,27.15
2022-10-18T02:29:12.650Z,29.75
2022-10-18T02:32:21.057Z,26.63
2022-10-18T02:35:30.170Z,24.67
2022-10-18T02:38:32.972Z,26.80
2022-10-18T02:41:35.282Z,23.17
2022-10-18T02:44:38.842Z,25.90
2022-10-18T02:47:41.207Z,23.27
2022-10-18T02:50:43.473Z,24.65
2022-10-18T02:53:45.780Z,27.00
2022-10-18T02:56:48.173Z,23.95
2022-10-18T02:59:50.716Z,26.95
2022-10-18T03:02:53.928Z,25.77
2022-10-18T03:05:56.271Z,20.30
2022-10-18T03:08:58.580Z,27.60
2022-10-18T03:12:00.881Z,25.38
2022-10-18T03:15:03.321Z,29.08
2022-10-18T03:18:05.717Z,30.40
2022-10-18T03:21:08.789Z,27.95
2022-10-18T03:24:11.092Z,25.23
2022-10-18T03:27:13.429Z,24.45
2022-10-18T03:30:15.815Z,33.25
2022-10-18T03:33:18.516Z,29.92
2022-10-18T03:36:20.839Z,25.88
2022-10-18T03:39:23.177Z,29.10
2022-10-18T03:42:25.575Z,30.85
2022-10-18T03:45:31.175Z,29.77
2022-10-18T03:48:34.076Z,31.02
2022-10-18T03:51:36.377Z,32.55
2022-10-18T03:54:38.721Z,30.30
2022-10-18T03:57:41.064Z,27.17
2022-10-18T04:00:43.376Z,27.63
2022-10-18T04:03:45.760Z,28.42
2022-10-18T04:06:48.089Z,26.08
2022-10-18T04:09:50.353Z,30.00
2022-10-18T04:12:52.798Z,27.20
2022-10-18T04:15:55.054Z,24.77
2022-10-18T04:18:57.373Z,24.23
2022-10-18T04:21:59.721Z,25.83
2022-10-18T04:25:02.009Z,25.53
2022-10-18T04:28:04.845Z,24.20
2022-10-18T04:31:07.193Z,25.23
2022-10-18T04:34:10.394Z,23.92
2022-10-18T04:37:12.581Z,27.17
2022-10-18T04:40:14.970Z,24.27
2022-10-18T04:43:17.452Z,23.77
2022-10-18T04:46:19.744Z,23.33
2022-10-18T04:49:21.965Z,26.00
2022-10-18T04:52:24.431Z,29.58
2022-10-18T04:55:26.762Z,23.40
2022-10-18T04:58:28.993Z,20.95
2022-10-18T05:01:31.306Z,22.13
2022-10-18T05:04:33.788Z,21.80
2022-10-18T05:07:36.161Z,30.90
2022-10-18T05:10:38.542Z,24.07
2022-10-18T05:13:40.868Z,31.95
2022-10-18T05:16:43.144Z,31.30
2022-10-18T05:19:45.478Z,30.83
2022-10-18T05:22:47.805Z,25.88
2022-10-18T05:25:50.061Z,27.10
2022-10-18T05:28:52.425Z,21.98
2022-10-18T05:31:54.781Z,21.80
2022-10-18T05:34:57.002Z,24.90
2022-10-18T05:37:59.377Z,39.72
2022-10-18T05:41:04.521Z,25.87
2022-10-18T05:44:07.530Z,29.08
2022-10-18T05:47:10.021Z,33.00
2022-10-18T05:50:12.301Z,36.97
2022-10-18T05:53:35.182Z,28.58
2022-10-18T05:56:36.780Z,28.50
2022-10-18T05:59:39.114Z,24.60
2022-10-18T06:02:41.441Z,26.42
2022-10-18T06:05:43.789Z,22.85
2022-10-18T06:08:49.226Z,21.15
2022-10-18T06:11:51.495Z,21.50
2022-10-18T06:14:53.765Z,24.42
2022-10-18T06:17:56.321Z,32.53
2022-10-18T06:20:59.584Z,41.63
2022-10-18T06:24:01.928Z,50.95
2022-10-18T06:27:09.098Z,46.43
2022-10-18T06:30:11.832Z,43.30
2022-10-18T06:33:14.122Z,44.83
2022-10-18T06:36:18.996Z,37.08
2022-10-18T06:39:21.305Z,42.70
2022-10-18T06:42:23.557Z,34.53
2022-10-18T06:45:25.856Z,30.83
2022-10-18T06:48:28.125Z,33.83
2022-10-18T06:51:30.387Z,33.95
2022-10-18T06:54:32.626Z,32.03
2022-10-18T06:57:34.913Z,34.77
2022-10-18T07:00:37.304Z,24.20
2022-10-18T07:03:39.680Z,30.42
2022-10-18T07:06:41.899Z,25.40
2022-10-18T07:09:46.088Z,30.77
2022-10-18T07:12:48.395Z,31.23
2022-10-18T07:16:12.911Z,22.00
2022-10-18T07:19:18.035Z,25.35
2022-10-18T07:22:20.337Z,25.73
2022-10-18T07:25:24.792Z,21.20
2022-10-18T07:28:29.823Z,25.67
2022-10-18T07:31:33.457Z,21.88
2022-10-18T07:34:35.869Z,13.07
2022-10-18T07:37:38.194Z,13.52
2022-10-18T07:40:40.413Z,16.42
2022-10-18T07:43:47.544Z,14.07
2022-10-18T07:46:49.769Z,13.15
2022-10-18T07:49:52.043Z,14.18
2022-10-18T07:52:54.397Z,15.85
2022-10-18T07:56:02.331Z,15.18
2022-10-18T07:59:06.916Z,13.13
2022-10-18T08:02:09.527Z,15.40
2022-10-18T08:05:11.798Z,11.63
2022-10-18T08:08:14.083Z,13.02
2022-10-18T08:11:18.924Z,13.18
2022-10-18T08:14:21.201Z,9.67
2022-10-18T08:17:23.486Z,12.85
2022-10-18T08:20:30.808Z,14.50
2022-10-18T08:23:34.438Z,16.50
2022-10-18T08:26:36.748Z,15.65
2022-10-18T08:29:39.096Z,10.33
2022-10-18T08:32:41.439Z,11.25
2022-10-18T08:35:43.712Z,13.45
2022-10-18T08:38:46.184Z,8.95
2022-10-18T08:41:54.795Z,9.95
2022-10-18T08:44:58.098Z,10.33
2022-10-18T08:48:00.424Z,9.35
2022-10-18T08:51:04.559Z,12.73
2022-10-18T08:54:12.144Z,11.13
2022-10-18T08:57:18.120Z,12.52
2022-10-18T09:00:22.759Z,16.37
2022-10-18T09:03:43.913Z,9.15
2022-10-18T09:07:19.974Z,10.38
2022-10-18T09:14:13.468Z,11.40
2022-10-18T09:17:16.258Z,12.10
2022-10-18T09:20:29.035Z,6.78
2022-10-18T09:23:49.641Z,8.25
2022-10-18T09:26:57.470Z,11.63
2022-10-18T09:30:20.929Z,14.57
2022-10-18T09:33:34.657Z,9.70
2022-10-18T09:36:38.800Z,10.27
2022-10-18T09:39:41.365Z,21.08
2022-10-18T09:42:53.436Z,16.90
2022-10-18T09:45:55.942Z,10.18
2022-10-18T09:49:01.845Z,13.20
2022-10-18T09:52:09.381Z,12.27
2022-10-18T09:55:19.396Z,18.27
2022-10-18T09:58:23.327Z,8.38
2022-10-18T10:01:27.567Z,13.23
2022-10-18T10:04:29.895Z,10.80
2022-10-18T10:07:42.685Z,9.05
2022-10-18T10:10:48.154Z,10.43
2022-10-18T10:13:50.426Z,10.80
2022-10-18T10:16:59.226Z,5.43
2022-10-18T10:20:20.818Z,5.73
2022-10-18T10:23:26.890Z,6.57
2022-10-18T10:26:36.668Z,7.53
2022-10-18T10:29:53.857Z,9.48
2022-10-18T10:32:57.041Z,5.88
2022-10-18T10:36:01.273Z,11.87
2022-10-18T10:39:04.916Z,8.60
2022-10-18T10:42:13.711Z,7.53
2022-10-18T10:45:16.136Z,6.80
2022-10-18T10:48:19.981Z,5.85
2022-10-18T10:51:33.049Z,8.70
2022-10-18T10:54:37.342Z,7.60
2022-10-18T10:57:39.681Z,18.48
2022-10-18T11:00:44.384Z,5.85
2022-10-18T11:03:48.873Z,8.60
2022-10-18T11:06:57.606Z,5.97
2022-10-18T11:10:13.526Z,9.27
2022-10-18T11:13:23.202Z,12.70
2022-10-18T11:17:07.713Z,12.52
2022-10-18T11:20:22.758Z,9.45
2022-10-18T11:23:32.009Z,5.77
2022-10-18T11:26:53.743Z,9.02
2022-10-18T11:29:59.440Z,8.00
2022-10-18T11:33:02.020Z,14.20
2022-10-18T11:36:09.366Z,7.50
2022-10-18T11:39:30.277Z,7.07
2022-10-18T11:42:53.628Z,6.55
2022-10-18T11:46:24.209Z,11.48
2022-10-18T11:49:54.147Z,11.05
2022-10-18T11:53:07.842Z,9.35
2022-10-18T11:56:13.146Z,9.40
2022-10-18T11:59:56.833Z,7.20
2022-10-18T12:03:14.123Z,6.28
2022-10-18T12:06:19.610Z,6.70
2022-10-18T12:09:27.906Z,8.27
2022-10-18T12:12:33.922Z,7.40
2022-10-18T12:15:39.433Z,5.90
2022-10-18T12:18:48.916Z,6.82
2022-10-18T12:21:51.685Z,7.68
2022-10-18T12:24:54.063Z,7.03
2022-10-18T12:28:06.760Z,7.47
2022-10-18T12:31:28.353Z,10.35
2022-10-18T12:34:44.174Z,7.88
2022-10-18T12:37:55.607Z,12.95
2022-10-18T12:40:59.103Z,12.73
2022-10-18T12:44:05.966Z,6.97
2022-10-18T12:47:22.135Z,7.25
2022-10-18T12:50:50.831Z,7.20
2022-10-18T12:54:02.028Z,5.80
2022-10-18T12:57:06.905Z,5.68
2022-10-18T13:00:31.656Z,7.87
2022-10-18T13:03:55.753Z,9.73
2022-10-18T13:06:59.674Z,8.43
2022-10-18T13:10:08.040Z,8.40
2022-10-18T13:13:38.714Z,6.40
2022-10-18T13:17:02.345Z,11.00
2022-10-18T13:20:27.110Z,5.90
2022-10-18T13:23:56.178Z,4.25
2022-10-18T13:27:31.113Z,3.58
2022-10-18T13:30:47.207Z,9.13
2022-10-18T13:33:49.955Z,5.00
2022-10-18T13:37:02.838Z,5.65
2022-10-18T13:40:21.834Z,4.35
2022-10-18T13:43:53.048Z,6.97
2022-10-18T13:46:55.395Z,6.85
2022-10-18T13:50:35.017Z,6.03
2022-10-18T13:53:51.163Z,5.90
2022-10-18T13:56:56.924Z,8.27
2022-10-18T14:00:21.045Z,7.38
2022-10-18T14:03:58.578Z,12.93
2022-10-18T14:07:03.462Z,5.87
2022-10-18T14:10:10.453Z,5.68
2022-10-18T14:13:21.074Z,5.88
2022-10-18T14:16:52.674Z,4.10
2022-10-18T14:20:48.976Z,8.43
2022-10-18T14:23:52.742Z,9.60
2022-10-18T14:27:20.562Z,5.50
2022-10-18T14:30:23.072Z,5.50
2022-10-18T14:33:28.256Z,4.05
2022-10-18T14:36:40.001Z,4.32
2022-10-18T14:39:42.277Z,5.87
2022-10-18T14:42:48.607Z,6.32
2022-10-18T14:45:50.879Z,8.57
2022-10-18T14:48:59.289Z,10.13
2022-10-18T14:52:01.706Z,11.40
2022-10-18T14:55:04.348Z,4.13
2022-10-18T14:58:15.286Z,5.80
2022-10-18T15:01:19.590Z,7.15
2022-10-18T15:04:27.701Z,4.93
2022-10-18T15:07:32.595Z,16.17
2022-10-18T15:10:35.597Z,5.53
2022-10-18T15:13:47.104Z,7.32
2022-10-18T15:16:49.993Z,5.82
2022-10-18T15:20:06.252Z,9.45
2022-10-18T15:23:26.578Z,9.70
2022-10-18T15:26:30.292Z,6.40
2022-10-18T15:29:35.300Z,5.57
2022-10-18T15:32:37.993Z,6.53
2022-10-18T15:35:43.425Z,7.10
2022-10-18T15:38:47.664Z,10.05
2022-10-18T15:41:59.547Z,7.33
2022-10-18T15:45:01.812Z,8.10
2022-10-18T15:48:09.280Z,8.80
2022-10-18T15:51:49.568Z,8.88
2022-10-18T15:54:51.859Z,9.15
2022-10-18T15:57:54.213Z,15.03
2022-10-18T16:00:59.001Z,12.55
2022-10-18T16:04:05.179Z,13.63
2022-10-18T16:07:09.620Z,15.57
2022-10-18T16:10:15.509Z,8.13
2022-10-18T16:13:18.530Z,10.27
2022-10-18T16:16:25.876Z,14.57
2022-10-18T16:19:28.151Z,16.52
2022-10-18T16:22:34.701Z,12.10
2022-10-18T16:25:39.287Z,11.52
2022-10-18T16:28:42.326Z,13.83
2022-10-18T16:31:46.711Z,17.92
2022-10-18T16:34:48.952Z,21.40
2022-10-18T16:37:51.181Z,17.50
2022-10-18T16:40:53.838Z,18.88
2022-10-18T16:43:56.161Z,26.80
2022-10-18T16:46:58.424Z,21.20
2022-10-18T16:50:06.462Z,19.70
2022-10-18T16:53:09.282Z,19.50
2022-10-18T16:56:17.461Z,19.17
2022-10-18T16:59:29.071Z,16.60
2022-10-18T17:02:31.720Z,20.20
2022-10-18T17:05:34.487Z,17.95
2022-10-18T17:08:36.748Z,16.75
2022-10-18T17:11:38.981Z,16.45
2022-10-18T17:14:41.280Z,19.70
2022-10-18T17:17:43.599Z,16.73
2022-10-18T17:20:46.296Z,24.90
2022-10-18T17:23:48.950Z,16.90
2022-10-18T17:26:51.249Z,20.80
2022-10-18T17:29:53.537Z,17.57
2022-10-18T17:32:55.911Z,22.85
2022-10-18T17:35:58.213Z,23.67
2022-10-18T17:39:00.732Z,19.60
2022-10-18T17:42:02.990Z,16.50
2022-10-18T17:45:05.882Z,17.20
2022-10-18T17:48:08.150Z,24.60
2022-10-18T17:51:11.573Z,22.38
2022-10-18T17:54:13.905Z,27.75
2022-10-18T17:57:16.351Z,37.65
2022-10-18T18:00:18.724Z,43.13
2022-10-18T18:03:21.320Z,40.20
2022-10-18T18:06:31.392Z,34.97
2022-10-18T18:09:33.767Z,37.75
2022-10-18T18:12:36.340Z,32.22
2022-10-18T18:15:38.794Z,32.10
2022-10-18T18:18:41.312Z,31.00
2022-10-18T18:21:43.689Z,25.17
2022-10-18T18:24:45.969Z,27.98
2022-10-18T18:27:48.173Z,30.02
2022-10-18T18:30:50.445Z,18.73
2022-10-18T18:33:54.460Z,21.05
2022-10-18T18:36:56.722Z,19.67
2022-10-18T18:39:59.055Z,18.42
2022-10-18T18:43:12.468Z,14.88
2022-10-18T18:46:25.001Z,13.80
2022-10-18T18:49:27.608Z,18.58
2022-10-18T18:52:30.010Z,14.88
2022-10-18T18:55:32.689Z,16.98
2022-10-18T18:58:36.420Z,12.32
2022-10-18T19:01:38.806Z,11.30
2022-10-18T19:04:41.462Z,13.75
2022-10-18T19:07:43.732Z,15.05
2022-10-18T19:10:49.059Z,16.58
2022-10-18T19:13:51.392Z,13.05
2022-10-18T19:16:55.286Z,19.27
2022-10-18T19:19:59.831Z,13.35
2022-10-18T19:23:02.127Z,14.40
2022-10-18T19:26:37.523Z,21.08
2022-10-18T19:29:40.963Z,15.40
2022-10-18T19:32:43.242Z,15.57
2022-10-18T19:35:45.499Z,14.95
2022-10-18T19:38:47.764Z,14.43
2022-10-18T19:41:52.291Z,15.25
2022-10-18T19:44:54.582Z,15.48
2022-10-18T19:47:56.836Z,15.87
2022-10-18T19:51:08.937Z,18.20
2022-10-18T19:54:13.113Z,20.15
2022-10-18T19:57:15.401Z,19.65
2022-10-18T20:00:19.645Z,14.10
2022-10-18T20:03:23.545Z,18.07
2022-10-18T20:06:26.529Z,15.63
2022-10-18T20:09:29.186Z,19.70
2022-10-18T20:12:31.789Z,13.80
2022-10-18T20:15:34.182Z,18.52
2022-10-18T20:18:36.787Z,17.07
2022-10-18T20:21:39.966Z,21.42
2022-10-18T20:24:42.205Z,16.70
2022-10-18T20:27:44.501Z,25.35
2022-10-18T20:30:46.752Z,17.38
2022-10-18T20:33:54.402Z,14.90
2022-10-18T20:36:56.709Z,19.90
2022-10-18T20:40:00.266Z,23.25
2022-10-18T20:43:03.851Z,24.45
2022-10-18T20:46:07.105Z,22.70
2022-10-18T20:49:13.834Z,28.07
2022-10-18T20:52:16.082Z,26.42
2022-10-18T20:55:18.955Z,29.33
2022-10-18T20:58:21.206Z,28.80
2022-10-18T21:01:31.862Z,28.70
2022-10-18T21:04:35.154Z,25.10
2022-10-18T21:07:39.085Z,27.90
2022-10-18T21:10:41.404Z,24.13
2022-10-18T21:13:43.673Z,30.23
2022-10-18T21:16:46.397Z,28.40
2022-10-18T21:19:48.626Z,24.97
2022-10-18T21:22:51.820Z,26.65
2022-10-18T21:25:54.112Z,28.35
2022-10-18T21:28:58.731Z,27.27
2022-10-18T21:32:02.319Z,23.77
2022-10-18T21:35:05.067Z,21.50
2022-10-18T21:38:07.886Z,25.38
2022-10-18T21:41:11.488Z,28.23
2022-10-18T21:44:14.119Z,24.13
2022-10-18T21:47:16.411Z,25.40
2022-10-18T21:50:18.688Z,24.60
2022-10-18T21:53:21.686Z,25.95
2022-10-18T21:56:33.555Z,30.48
2022-10-18T21:59:35.822Z,22.05
2022-10-18T22:02:38.142Z,25.88
2022-10-18T22:05:40.509Z,23.53
2022-10-18T22:08:45.668Z,21.95
2022-10-18T22:11:52.315Z,28.35
2022-10-18T22:14:54.637Z,25.30
2022-10-18T22:17:56.887Z,25.08
2022-10-18T22:21:05.458Z,24.23
2022-10-18T22:24:09.103Z,23.83
2022-10-18T22:27:11.405Z,27.58
2022-10-18T22:30:13.736Z,24.98
2022-10-18T22:33:16.058Z,25.27
2022-10-18T22:36:18.332Z,27.57
2022-10-18T22:39:20.632Z,27.67
2022-10-18T22:42:22.942Z,24.85
2022-10-18T22:45:25.295Z,23.48
2022-10-18T22:48:27.661Z,24.52
2022-10-18T22:51:30.086Z,25.27
2022-10-18T22:54:32.417Z,25.27
2022-10-18T22:57:34.861Z,27.10
2022-10-18T23:00:38.576Z,22.95
2022-10-18T23:03:40.974Z,24.25
2022-10-18T23:06:43.271Z,26.77
2022-10-18T23:09:45.658Z,26.92
2022-10-18T23:12:47.937Z,23.35
2022-10-18T23:15:50.603Z,23.95
2022-10-18T23:18:57.508Z,21.55
2022-10-18T23:21:59.750Z,26.37
2022-10-18T23:25:04.263Z,33.50
2022-10-18T23:28:06.564Z,32.92
2022-10-18T23:31:11.030Z,68.18
2022-10-18T23:34:13.404Z,73.38
2022-10-18T23:37:15.672Z,75.07
2022-10-18T23:40:18.014Z,81.60
2022-10-18T23:43:20.215Z,75.78
2022-10-18T23:46:22.605Z,81.57
2022-10-18T23:49:24.874Z,76.28
2022-10-18T23:52:27.163Z,80.67
2022-10-18T23:55:29.438Z,80.25
2022-10-18T23:58:33.123Z,71.57
